sensor_id;sensor_type;location;lat;lon;timestamp;P1;durP1;ratioP1;P2;durP2;ratioP2
71763;SDS011;59602;52.142;5.408;2023-06-10T00:00:53;6.35;;;3.58;;
71763;SDS011;59602;52.142;5.408;2023-06-10T00:03:20;5.25;;;3.17;;
71763;SDS011;59602;52.142;5.408;2023-06-10T00:06:02;5.80;;;3.30;;
71763;SDS011;59602;52.142;5.408;2023-06-10T00:08:28;5.23;;;3.20;;
71763;SDS011;59602;52.142;5.408;2023-06-10T00:11:11;5.53;;;3.38;;
71763;SDS011;59602;52.142;5.408;2023-06-10T00:13:42;6.43;;;3.40;;
71763;SDS011;59602;52.142;5.408;2023-06-10T00:16:09;5.70;;;3.15;;
71763;SDS011;59602;52.142;5.408;2023-06-10T00:18:36;7.32;;;3.67;;
71763;SDS011;59602;52.142;5.408;2023-06-10T00:21:04;6.60;;;3.33;;
71763;SDS011;59602;52.142;5.408;2023-06-10T00:23:54;5.57;;;3.15;;
71763;SDS011;59602;52.142;5.408;2023-06-10T00:26:44;7.35;;;3.13;;
71763;SDS011;59602;52.142;5.408;2023-06-10T00:29:11;5.28;;;3.40;;
71763;SDS011;59602;52.142;5.408;2023-06-10T00:31:44;5.97;;;3.40;;
71763;SDS011;59602;52.142;5.408;2023-06-10T00:34:11;4.70;;;3.30;;
71763;SDS011;59602;52.142;5.408;2023-06-10T00:36:39;4.03;;;3.03;;
71763;SDS011;59602;52.142;5.408;2023-06-10T00:39:05;4.47;;;3.08;;
71763;SDS011;59602;52.142;5.408;2023-06-10T00:41:32;5.00;;;3.08;;
71763;SDS011;59602;52.142;5.408;2023-06-10T00:44:01;5.22;;;3.25;;
71763;SDS011;59602;52.142;5.408;2023-06-10T00:46:31;7.87;;;4.43;;
71763;SDS011;59602;52.142;5.408;2023-06-10T00:49:01;4.78;;;2.75;;
71763;SDS011;59602;52.142;5.408;2023-06-10T00:51:30;4.65;;;3.30;;
71763;SDS011;59602;52.142;5.408;2023-06-10T00:54:15;4.53;;;3.20;;
71763;SDS011;59602;52.142;5.408;2023-06-10T00:56:42;7.50;;;3.28;;
71763;SDS011;59602;52.142;5.408;2023-06-10T00:59:09;5.97;;;3.50;;
71763;SDS011;59602;52.142;5.408;2023-06-10T01:01:38;8.63;;;3.70;;
71763;SDS011;59602;52.142;5.408;2023-06-10T01:04:28;9.00;;;3.30;;
71763;SDS011;59602;52.142;5.408;2023-06-10T01:07:05;5.85;;;2.80;;
71763;SDS011;59602;52.142;5.408;2023-06-10T01:12:19;6.73;;;3.00;;
71763;SDS011;59602;52.142;5.408;2023-06-10T01:14:55;7.22;;;3.53;;
71763;SDS011;59602;52.142;5.408;2023-06-10T01:17:24;7.32;;;3.90;;
71763;SDS011;59602;52.142;5.408;2023-06-10T01:19:54;6.97;;;4.03;;
71763;SDS011;59602;52.142;5.408;2023-06-10T01:22:23;9.77;;;3.95;;
71763;SDS011;59602;52.142;5.408;2023-06-10T01:24:52;7.10;;;3.20;;
71763;SDS011;59602;52.142;5.408;2023-06-10T01:27:19;5.32;;;3.17;;
71763;SDS011;59602;52.142;5.408;2023-06-10T01:30:08;9.40;;;3.97;;
71763;SDS011;59602;52.142;5.408;2023-06-10T01:32:45;6.55;;;3.58;;
71763;SDS011;59602;52.142;5.408;2023-06-10T01:35:14;10.20;;;4.22;;
71763;SDS011;59602;52.142;5.408;2023-06-10T01:37:43;7.63;;;3.70;;
71763;SDS011;59602;52.142;5.408;2023-06-10T01:40:12;7.70;;;3.72;;
71763;SDS011;59602;52.142;5.408;2023-06-10T01:42:40;7.85;;;3.63;;
71763;SDS011;59602;52.142;5.408;2023-06-10T01:45:06;7.18;;;3.40;;
71763;SDS011;59602;52.142;5.408;2023-06-10T01:47:34;7.82;;;3.85;;
71763;SDS011;59602;52.142;5.408;2023-06-10T01:50:01;6.90;;;3.50;;
71763;SDS011;59602;52.142;5.408;2023-06-10T01:52:28;6.47;;;3.40;;
71763;SDS011;59602;52.142;5.408;2023-06-10T01:54:54;6.15;;;3.30;;
71763;SDS011;59602;52.142;5.408;2023-06-10T01:57:21;8.80;;;3.17;;
71763;SDS011;59602;52.142;5.408;2023-06-10T02:00:05;5.85;;;3.50;;
71763;SDS011;59602;52.142;5.408;2023-06-10T02:02:33;6.57;;;2.90;;
71763;SDS011;59602;52.142;5.408;2023-06-10T02:05:00;6.90;;;3.50;;
71763;SDS011;59602;52.142;5.408;2023-06-10T02:07:27;6.07;;;3.17;;
71763;SDS011;59602;52.142;5.408;2023-06-10T02:09:54;6.65;;;3.47;;
71763;SDS011;59602;52.142;5.408;2023-06-10T02:12:21;7.70;;;3.58;;
71763;SDS011;59602;52.142;5.408;2023-06-10T02:14:58;6.50;;;3.30;;
71763;SDS011;59602;52.142;5.408;2023-06-10T02:17:25;6.00;;;3.13;;
71763;SDS011;59602;52.142;5.408;2023-06-10T02:19:54;7.78;;;3.65;;
71763;SDS011;59602;52.142;5.408;2023-06-10T02:22:22;7.45;;;3.22;;
71763;SDS011;59602;52.142;5.408;2023-06-10T02:24:49;6.78;;;3.30;;
71763;SDS011;59602;52.142;5.408;2023-06-10T02:27:16;6.83;;;2.83;;
71763;SDS011;59602;52.142;5.408;2023-06-10T02:29:44;6.93;;;3.00;;
71763;SDS011;59602;52.142;5.408;2023-06-10T02:32:11;6.30;;;2.80;;
71763;SDS011;59602;52.142;5.408;2023-06-10T02:34:37;5.65;;;2.97;;
71763;SDS011;59602;52.142;5.408;2023-06-10T02:37:05;5.15;;;2.95;;
71763;SDS011;59602;52.142;5.408;2023-06-10T02:39:34;6.37;;;2.70;;
71763;SDS011;59602;52.142;5.408;2023-06-10T02:42:01;6.80;;;2.58;;
71763;SDS011;59602;52.142;5.408;2023-06-10T02:44:27;6.53;;;3.08;;
71763;SDS011;59602;52.142;5.408;2023-06-10T02:46:56;7.65;;;3.50;;
71763;SDS011;59602;52.142;5.408;2023-06-10T02:49:40;5.22;;;2.53;;
71763;SDS011;59602;52.142;5.408;2023-06-10T02:52:07;6.47;;;2.90;;
71763;SDS011;59602;52.142;5.408;2023-06-10T02:54:34;7.18;;;2.90;;
71763;SDS011;59602;52.142;5.408;2023-06-10T02:57:04;4.85;;;2.85;;
71763;SDS011;59602;52.142;5.408;2023-06-10T02:59:32;6.50;;;2.75;;
71763;SDS011;59602;52.142;5.408;2023-06-10T03:01:59;5.50;;;2.90;;
71763;SDS011;59602;52.142;5.408;2023-06-10T03:04:27;4.73;;;2.60;;
71763;SDS011;59602;52.142;5.408;2023-06-10T03:06:56;5.47;;;3.13;;
71763;SDS011;59602;52.142;5.408;2023-06-10T03:09:22;6.57;;;2.88;;
71763;SDS011;59602;52.142;5.408;2023-06-10T03:11:49;9.82;;;2.88;;
71763;SDS011;59602;52.142;5.408;2023-06-10T03:14:16;6.32;;;3.00;;
71763;SDS011;59602;52.142;5.408;2023-06-10T03:16:42;7.33;;;3.10;;
71763;SDS011;59602;52.142;5.408;2023-06-10T03:19:10;5.70;;;2.65;;
71763;SDS011;59602;52.142;5.408;2023-06-10T03:21:37;7.30;;;2.88;;
71763;SDS011;59602;52.142;5.408;2023-06-10T03:24:04;5.22;;;2.53;;
71763;SDS011;59602;52.142;5.408;2023-06-10T03:26:32;6.55;;;2.60;;
71763;SDS011;59602;52.142;5.408;2023-06-10T03:28:58;6.87;;;3.00;;
71763;SDS011;59602;52.142;5.408;2023-06-10T03:31:25;9.18;;;4.28;;
71763;SDS011;59602;52.142;5.408;2023-06-10T03:33:52;7.03;;;2.90;;
71763;SDS011;59602;52.142;5.408;2023-06-10T03:36:18;7.95;;;3.20;;
71763;SDS011;59602;52.142;5.408;2023-06-10T03:38:45;6.22;;;3.00;;
71763;SDS011;59602;52.142;5.408;2023-06-10T03:41:12;5.53;;;2.83;;
71763;SDS011;59602;52.142;5.408;2023-06-10T03:43:38;6.10;;;3.58;;
71763;SDS011;59602;52.142;5.408;2023-06-10T03:46:06;6.05;;;2.95;;
71763;SDS011;59602;52.142;5.408;2023-06-10T03:48:33;6.68;;;2.80;;
71763;SDS011;59602;52.142;5.408;2023-06-10T03:51:00;4.38;;;2.75;;
71763;SDS011;59602;52.142;5.408;2023-06-10T03:53:27;7.47;;;2.97;;
71763;SDS011;59602;52.142;5.408;2023-06-10T03:56:03;6.63;;;2.92;;
71763;SDS011;59602;52.142;5.408;2023-06-10T03:58:29;5.28;;;3.00;;
71763;SDS011;59602;52.142;5.408;2023-06-10T04:00:56;6.22;;;3.08;;
71763;SDS011;59602;52.142;5.408;2023-06-10T04:03:23;5.57;;;2.83;;
71763;SDS011;59602;52.142;5.408;2023-06-10T04:05:50;7.93;;;2.50;;
71763;SDS011;59602;52.142;5.408;2023-06-10T04:08:17;6.75;;;2.92;;
71763;SDS011;59602;52.142;5.408;2023-06-10T04:10:44;6.88;;;2.97;;
71763;SDS011;59602;52.142;5.408;2023-06-10T04:13:10;5.55;;;3.15;;
71763;SDS011;59602;52.142;5.408;2023-06-10T04:15:37;7.72;;;3.08;;
71763;SDS011;59602;52.142;5.408;2023-06-10T04:18:04;6.93;;;3.13;;
71763;SDS011;59602;52.142;5.408;2023-06-10T04:20:31;6.80;;;3.15;;
71763;SDS011;59602;52.142;5.408;2023-06-10T04:22:58;6.30;;;2.90;;
71763;SDS011;59602;52.142;5.408;2023-06-10T04:25:25;6.10;;;2.88;;
71763;SDS011;59602;52.142;5.408;2023-06-10T04:27:53;6.93;;;2.95;;
71763;SDS011;59602;52.142;5.408;2023-06-10T04:30:20;5.90;;;3.20;;
71763;SDS011;59602;52.142;5.408;2023-06-10T04:32:49;5.57;;;3.10;;
71763;SDS011;59602;52.142;5.408;2023-06-10T04:35:15;7.35;;;3.40;;
71763;SDS011;59602;52.142;5.408;2023-06-10T04:37:42;6.53;;;3.30;;
71763;SDS011;59602;52.142;5.408;2023-06-10T04:40:09;6.05;;;3.03;;
71763;SDS011;59602;52.142;5.408;2023-06-10T04:42:36;7.63;;;3.73;;
71763;SDS011;59602;52.142;5.408;2023-06-10T04:45:03;6.72;;;3.55;;
71763;SDS011;59602;52.142;5.408;2023-06-10T04:47:30;6.72;;;3.40;;
71763;SDS011;59602;52.142;5.408;2023-06-10T04:50:00;6.50;;;3.25;;
71763;SDS011;59602;52.142;5.408;2023-06-10T04:52:28;6.10;;;3.15;;
71763;SDS011;59602;52.142;5.408;2023-06-10T04:54:57;8.90;;;3.40;;
71763;SDS011;59602;52.142;5.408;2023-06-10T04:57:24;6.60;;;3.15;;
71763;SDS011;59602;52.142;5.408;2023-06-10T04:59:52;5.68;;;3.35;;
71763;SDS011;59602;52.142;5.408;2023-06-10T05:02:19;6.70;;;3.00;;
71763;SDS011;59602;52.142;5.408;2023-06-10T05:04:46;6.13;;;3.03;;
71763;SDS011;59602;52.142;5.408;2023-06-10T05:07:13;6.73;;;3.67;;
71763;SDS011;59602;52.142;5.408;2023-06-10T05:09:41;8.50;;;3.38;;
71763;SDS011;59602;52.142;5.408;2023-06-10T05:12:10;6.55;;;3.10;;
71763;SDS011;59602;52.142;5.408;2023-06-10T05:14:38;7.18;;;3.55;;
71763;SDS011;59602;52.142;5.408;2023-06-10T05:17:05;5.65;;;3.20;;
71763;SDS011;59602;52.142;5.408;2023-06-10T05:19:32;7.73;;;3.73;;
71763;SDS011;59602;52.142;5.408;2023-06-10T05:21:59;5.32;;;3.05;;
71763;SDS011;59602;52.142;5.408;2023-06-10T05:24:25;7.38;;;3.40;;
71763;SDS011;59602;52.142;5.408;2023-06-10T05:26:52;6.97;;;3.17;;
71763;SDS011;59602;52.142;5.408;2023-06-10T05:29:18;6.45;;;3.38;;
71763;SDS011;59602;52.142;5.408;2023-06-10T05:31:46;6.30;;;3.43;;
71763;SDS011;59602;52.142;5.408;2023-06-10T05:34:12;12.45;;;3.92;;
71763;SDS011;59602;52.142;5.408;2023-06-10T05:36:39;7.53;;;3.58;;
71763;SDS011;59602;52.142;5.408;2023-06-10T05:39:06;6.97;;;3.67;;
71763;SDS011;59602;52.142;5.408;2023-06-10T05:41:34;7.68;;;3.55;;
71763;SDS011;59602;52.142;5.408;2023-06-10T05:44:14;6.93;;;3.20;;
71763;SDS011;59602;52.142;5.408;2023-06-10T05:46:43;7.28;;;3.58;;
71763;SDS011;59602;52.142;5.408;2023-06-10T05:49:10;5.45;;;2.85;;
71763;SDS011;59602;52.142;5.408;2023-06-10T05:51:39;8.93;;;3.25;;
71763;SDS011;59602;52.142;5.408;2023-06-10T05:54:06;5.38;;;3.25;;
71763;SDS011;59602;52.142;5.408;2023-06-10T05:56:34;5.97;;;3.30;;
71763;SDS011;59602;52.142;5.408;2023-06-10T05:59:00;6.03;;;3.40;;
71763;SDS011;59602;52.142;5.408;2023-06-10T06:01:29;5.65;;;3.33;;
71763;SDS011;59602;52.142;5.408;2023-06-10T06:03:55;6.75;;;3.47;;
71763;SDS011;59602;52.142;5.408;2023-06-10T06:06:22;6.93;;;3.85;;
71763;SDS011;59602;52.142;5.408;2023-06-10T06:08:49;7.00;;;3.70;;
71763;SDS011;59602;52.142;5.408;2023-06-10T06:11:16;6.15;;;3.40;;
71763;SDS011;59602;52.142;5.408;2023-06-10T06:13:49;8.55;;;3.72;;
71763;SDS011;59602;52.142;5.408;2023-06-10T06:28:34;6.50;;;3.05;;
71763;SDS011;59602;52.142;5.408;2023-06-10T06:31:20;8.00;;;3.30;;
71763;SDS011;59602;52.142;5.408;2023-06-10T06:33:47;5.80;;;3.60;;
71763;SDS011;59602;52.142;5.408;2023-06-10T06:36:13;6.97;;;3.23;;
71763;SDS011;59602;52.142;5.408;2023-06-10T06:38:46;6.60;;;3.40;;
71763;SDS011;59602;52.142;5.408;2023-06-10T06:41:13;5.43;;;3.63;;
71763;SDS011;59602;52.142;5.408;2023-06-10T06:43:39;6.50;;;3.60;;
71763;SDS011;59602;52.142;5.408;2023-06-10T06:46:06;7.50;;;3.47;;
71763;SDS011;59602;52.142;5.408;2023-06-10T06:48:33;7.30;;;3.60;;
71763;SDS011;59602;52.142;5.408;2023-06-10T06:51:00;8.98;;;4.00;;
71763;SDS011;59602;52.142;5.408;2023-06-10T06:53:27;8.77;;;4.25;;
71763;SDS011;59602;52.142;5.408;2023-06-10T06:56:15;7.30;;;3.90;;
71763;SDS011;59602;52.142;5.408;2023-06-10T06:58:42;7.22;;;3.55;;
71763;SDS011;59602;52.142;5.408;2023-06-10T07:01:08;7.07;;;3.40;;
71763;SDS011;59602;52.142;5.408;2023-06-10T07:03:35;6.60;;;3.47;;
71763;SDS011;59602;52.142;5.408;2023-06-10T07:06:02;8.70;;;3.50;;
71763;SDS011;59602;52.142;5.408;2023-06-10T07:08:28;7.85;;;3.70;;
71763;SDS011;59602;52.142;5.408;2023-06-10T07:10:55;6.63;;;3.65;;
71763;SDS011;59602;52.142;5.408;2023-06-10T07:13:22;8.17;;;3.40;;
71763;SDS011;59602;52.142;5.408;2023-06-10T07:15:48;6.50;;;3.90;;
71763;SDS011;59602;52.142;5.408;2023-06-10T07:18:17;7.40;;;4.20;;
71763;SDS011;59602;52.142;5.408;2023-06-10T07:20:43;6.70;;;3.45;;
71763;SDS011;59602;52.142;5.408;2023-06-10T07:23:11;7.57;;;3.70;;
71763;SDS011;59602;52.142;5.408;2023-06-10T07:25:38;6.23;;;3.80;;
71763;SDS011;59602;52.142;5.408;2023-06-10T07:28:04;8.32;;;4.10;;
71763;SDS011;59602;52.142;5.408;2023-06-10T07:30:31;8.07;;;3.70;;
71763;SDS011;59602;52.142;5.408;2023-06-10T07:32:58;7.22;;;3.95;;
71763;SDS011;59602;52.142;5.408;2023-06-10T07:35:25;7.45;;;3.35;;
71763;SDS011;59602;52.142;5.408;2023-06-10T07:37:51;6.30;;;3.33;;
71763;SDS011;59602;52.142;5.408;2023-06-10T07:40:18;9.57;;;3.47;;
71763;SDS011;59602;52.142;5.408;2023-06-10T07:42:45;10.05;;;4.05;;
71763;SDS011;59602;52.142;5.408;2023-06-10T07:45:14;8.13;;;3.92;;
71763;SDS011;59602;52.142;5.408;2023-06-10T07:47:42;7.18;;;3.50;;
71763;SDS011;59602;52.142;5.408;2023-06-10T07:50:09;7.80;;;3.37;;
71763;SDS011;59602;52.142;5.408;2023-06-10T07:52:36;5.75;;;3.50;;
71763;SDS011;59602;52.142;5.408;2023-06-10T07:55:03;8.80;;;4.10;;
71763;SDS011;59602;52.142;5.408;2023-06-10T07:57:31;6.80;;;3.72;;
71763;SDS011;59602;52.142;5.408;2023-06-10T08:00:01;7.35;;;3.60;;
71763;SDS011;59602;52.142;5.408;2023-06-10T08:02:30;5.80;;;3.63;;
71763;SDS011;59602;52.142;5.408;2023-06-10T08:04:57;8.60;;;3.72;;
71763;SDS011;59602;52.142;5.408;2023-06-10T08:07:24;7.75;;;4.20;;
71763;SDS011;59602;52.142;5.408;2023-06-10T08:09:51;6.70;;;3.22;;
71763;SDS011;59602;52.142;5.408;2023-06-10T08:12:18;5.63;;;3.47;;
71763;SDS011;59602;52.142;5.408;2023-06-10T08:14:52;5.23;;;3.40;;
71763;SDS011;59602;52.142;5.408;2023-06-10T08:17:18;9.13;;;3.60;;
71763;SDS011;59602;52.142;5.408;2023-06-10T08:19:45;5.85;;;3.85;;
71763;SDS011;59602;52.142;5.408;2023-06-10T08:22:11;10.20;;;3.58;;
71763;SDS011;59602;52.142;5.408;2023-06-10T08:24:38;11.43;;;3.60;;
71763;SDS011;59602;52.142;5.408;2023-06-10T08:27:05;5.00;;;3.00;;
71763;SDS011;59602;52.142;5.408;2023-06-10T08:29:32;4.88;;;3.63;;
71763;SDS011;59602;52.142;5.408;2023-06-10T08:31:59;6.65;;;3.80;;
71763;SDS011;59602;52.142;5.408;2023-06-10T08:34:26;7.95;;;3.83;;
71763;SDS011;59602;52.142;5.408;2023-06-10T08:36:53;5.85;;;3.92;;
71763;SDS011;59602;52.142;5.408;2023-06-10T08:39:22;8.87;;;3.17;;
71763;SDS011;59602;52.142;5.408;2023-06-10T08:41:57;6.78;;;3.20;;
71763;SDS011;59602;52.142;5.408;2023-06-10T08:44:32;7.93;;;3.58;;
71763;SDS011;59602;52.142;5.408;2023-06-10T08:47:06;7.10;;;3.40;;
71763;SDS011;59602;52.142;5.408;2023-06-10T08:49:49;5.65;;;3.05;;
71763;SDS011;59602;52.142;5.408;2023-06-10T08:52:18;6.47;;;3.23;;
71763;SDS011;59602;52.142;5.408;2023-06-10T08:57:18;8.13;;;3.53;;
71763;SDS011;59602;52.142;5.408;2023-06-10T08:59:48;6.38;;;3.60;;
71763;SDS011;59602;52.142;5.408;2023-06-10T09:02:15;7.00;;;3.20;;
71763;SDS011;59602;52.142;5.408;2023-06-10T09:04:47;6.13;;;3.40;;
71763;SDS011;59602;52.142;5.408;2023-06-10T09:07:16;5.70;;;3.58;;
71763;SDS011;59602;52.142;5.408;2023-06-10T09:09:43;6.35;;;3.30;;
71763;SDS011;59602;52.142;5.408;2023-06-10T09:12:11;6.20;;;3.25;;
71763;SDS011;59602;52.142;5.408;2023-06-10T09:14:39;4.30;;;3.35;;
71763;SDS011;59602;52.142;5.408;2023-06-10T09:17:06;6.57;;;3.03;;
71763;SDS011;59602;52.142;5.408;2023-06-10T09:19:35;4.22;;;2.90;;
71763;SDS011;59602;52.142;5.408;2023-06-10T09:51:15;5.03;;;3.20;;
71763;SDS011;59602;52.142;5.408;2023-06-10T09:53:47;4.85;;;3.08;;
71763;SDS011;59602;52.142;5.408;2023-06-10T09:56:15;7.10;;;3.33;;
71763;SDS011;59602;52.142;5.408;2023-06-10T09:58:42;4.35;;;3.22;;
71763;SDS011;59602;52.142;5.408;2023-06-10T10:01:10;5.83;;;3.13;;
71763;SDS011;59602;52.142;5.408;2023-06-10T10:03:46;4.78;;;3.28;;
71763;SDS011;59602;52.142;5.408;2023-06-10T10:06:21;8.07;;;3.17;;
71763;SDS011;59602;52.142;5.408;2023-06-10T10:15:36;5.03;;;3.30;;
71763;SDS011;59602;52.142;5.408;2023-06-10T10:19:00;5.03;;;3.10;;
71763;SDS011;59602;52.142;5.408;2023-06-10T10:22:08;7.43;;;3.47;;
71763;SDS011;59602;52.142;5.408;2023-06-10T10:25:02;6.97;;;3.40;;
71763;SDS011;59602;52.142;5.408;2023-06-10T10:28:16;4.93;;;3.20;;
71763;SDS011;59602;52.142;5.408;2023-06-10T10:31:02;4.10;;;2.97;;
71763;SDS011;59602;52.142;5.408;2023-06-10T10:37:28;5.60;;;2.75;;
71763;SDS011;59602;52.142;5.408;2023-06-10T10:40:21;5.88;;;3.22;;
71763;SDS011;59602;52.142;5.408;2023-06-10T10:42:54;3.88;;;3.03;;
71763;SDS011;59602;52.142;5.408;2023-06-10T10:46:14;5.70;;;2.73;;
71763;SDS011;59602;52.142;5.408;2023-06-10T10:56:33;4.05;;;2.85;;
71763;SDS011;59602;52.142;5.408;2023-06-10T10:59:03;5.53;;;2.90;;
71763;SDS011;59602;52.142;5.408;2023-06-10T11:01:41;5.23;;;3.43;;
71763;SDS011;59602;52.142;5.408;2023-06-10T11:04:19;3.80;;;3.08;;
71763;SDS011;59602;52.142;5.408;2023-06-10T11:06:55;4.55;;;3.72;;
71763;SDS011;59602;52.142;5.408;2023-06-10T11:09:32;4.95;;;3.13;;
71763;SDS011;59602;52.142;5.408;2023-06-10T11:11:59;3.83;;;3.08;;
71763;SDS011;59602;52.142;5.408;2023-06-10T11:14:27;4.97;;;3.37;;
71763;SDS011;59602;52.142;5.408;2023-06-10T11:16:59;4.53;;;3.45;;
71763;SDS011;59602;52.142;5.408;2023-06-10T11:31:20;6.15;;;3.90;;
71763;SDS011;59602;52.142;5.408;2023-06-10T11:33:50;10.25;;;4.03;;
71763;SDS011;59602;52.142;5.408;2023-06-10T11:36:21;5.60;;;3.58;;
71763;SDS011;59602;52.142;5.408;2023-06-10T11:38:49;4.18;;;3.50;;
71763;SDS011;59602;52.142;5.408;2023-06-10T11:41:17;5.60;;;3.93;;
71763;SDS011;59602;52.142;5.408;2023-06-10T11:43:44;4.35;;;3.40;;
71763;SDS011;59602;52.142;5.408;2023-06-10T11:46:12;6.60;;;3.80;;
71763;SDS011;59602;52.142;5.408;2023-06-10T11:48:39;3.88;;;3.22;;
71763;SDS011;59602;52.142;5.408;2023-06-10T11:51:06;5.47;;;3.70;;
71763;SDS011;59602;52.142;5.408;2023-06-10T11:53:33;5.03;;;3.80;;
71763;SDS011;59602;52.142;5.408;2023-06-10T11:56:01;5.40;;;3.28;;
71763;SDS011;59602;52.142;5.408;2023-06-10T11:58:27;5.60;;;3.40;;
71763;SDS011;59602;52.142;5.408;2023-06-10T12:00:55;6.95;;;4.05;;
71763;SDS011;59602;52.142;5.408;2023-06-10T12:03:39;6.13;;;3.95;;
71763;SDS011;59602;52.142;5.408;2023-06-10T12:06:08;4.73;;;4.20;;
71763;SDS011;59602;52.142;5.408;2023-06-10T12:08:51;5.60;;;4.28;;
71763;SDS011;59602;52.142;5.408;2023-06-10T12:11:58;5.25;;;4.20;;
71763;SDS011;59602;52.142;5.408;2023-06-10T12:18:22;5.55;;;3.78;;
71763;SDS011;59602;52.142;5.408;2023-06-10T12:20:50;5.23;;;4.03;;
71763;SDS011;59602;52.142;5.408;2023-06-10T12:23:17;8.50;;;4.28;;
71763;SDS011;59602;52.142;5.408;2023-06-10T12:26:07;8.32;;;4.60;;
71763;SDS011;59602;52.142;5.408;2023-06-10T12:28:34;4.57;;;3.80;;
71763;SDS011;59602;52.142;5.408;2023-06-10T12:31:14;5.55;;;4.15;;
71763;SDS011;59602;52.142;5.408;2023-06-10T12:34:07;5.57;;;4.47;;
71763;SDS011;59602;52.142;5.408;2023-06-10T12:36:35;7.07;;;4.22;;
71763;SDS011;59602;52.142;5.408;2023-06-10T12:39:09;5.20;;;4.50;;
71763;SDS011;59602;52.142;5.408;2023-06-10T12:41:36;7.35;;;4.20;;
71763;SDS011;59602;52.142;5.408;2023-06-10T12:48:05;5.63;;;4.50;;
71763;SDS011;59602;52.142;5.408;2023-06-10T12:51:06;5.78;;;4.45;;
71763;SDS011;59602;52.142;5.408;2023-06-10T13:00:03;7.25;;;3.97;;
71763;SDS011;59602;52.142;5.408;2023-06-10T13:02:42;4.70;;;3.90;;
71763;SDS011;59602;52.142;5.408;2023-06-10T13:05:31;5.10;;;4.13;;
71763;SDS011;59602;52.142;5.408;2023-06-10T13:07:59;5.85;;;4.10;;
71763;SDS011;59602;52.142;5.408;2023-06-10T13:10:26;5.60;;;4.00;;
71763;SDS011;59602;52.142;5.408;2023-06-10T13:12:53;5.35;;;4.15;;
71763;SDS011;59602;52.142;5.408;2023-06-10T13:15:36;6.07;;;4.13;;
71763;SDS011;59602;52.142;5.408;2023-06-10T13:18:16;7.32;;;4.20;;
71763;SDS011;59602;52.142;5.408;2023-06-10T13:20:48;7.00;;;4.20;;
71763;SDS011;59602;52.142;5.408;2023-06-10T13:23:16;5.25;;;4.03;;
71763;SDS011;59602;52.142;5.408;2023-06-10T13:25:48;6.05;;;4.38;;
71763;SDS011;59602;52.142;5.408;2023-06-10T13:30:53;6.30;;;4.38;;
71763;SDS011;59602;52.142;5.408;2023-06-10T13:33:44;5.55;;;4.20;;
71763;SDS011;59602;52.142;5.408;2023-06-10T13:40:11;7.45;;;3.72;;
71763;SDS011;59602;52.142;5.408;2023-06-10T13:46:02;6.85;;;4.35;;
71763;SDS011;59602;52.142;5.408;2023-06-10T13:48:31;6.18;;;3.92;;
71763;SDS011;59602;52.142;5.408;2023-06-10T13:51:48;5.18;;;3.90;;
71763;SDS011;59602;52.142;5.408;2023-06-10T13:58:31;4.47;;;3.63;;
71763;SDS011;59602;52.142;5.408;2023-06-10T14:01:34;5.03;;;3.60;;
71763;SDS011;59602;52.142;5.408;2023-06-10T14:05:01;4.75;;;3.78;;
71763;SDS011;59602;52.142;5.408;2023-06-10T14:08:21;5.18;;;3.90;;
71763;SDS011;59602;52.142;5.408;2023-06-10T14:11:15;6.53;;;3.90;;
71763;SDS011;59602;52.142;5.408;2023-06-10T14:17:50;4.32;;;3.70;;
71763;SDS011;59602;52.142;5.408;2023-06-10T14:20:25;5.57;;;3.97;;
71763;SDS011;59602;52.142;5.408;2023-06-10T14:26:56;5.03;;;3.78;;
71763;SDS011;59602;52.142;5.408;2023-06-10T14:32:40;4.50;;;4.10;;
71763;SDS011;59602;52.142;5.408;2023-06-10T14:35:11;5.47;;;3.80;;
71763;SDS011;59602;52.142;5.408;2023-06-10T14:38:04;5.13;;;4.13;;
71763;SDS011;59602;52.142;5.408;2023-06-10T14:41:06;4.25;;;3.85;;
71763;SDS011;59602;52.142;5.408;2023-06-10T14:44:01;4.00;;;3.57;;
71763;SDS011;59602;52.142;5.408;2023-06-10T14:49:43;6.63;;;3.85;;
71763;SDS011;59602;52.142;5.408;2023-06-10T14:52:14;6.47;;;4.03;;
71763;SDS011;59602;52.142;5.408;2023-06-10T14:54:58;6.70;;;3.83;;
71763;SDS011;59602;52.142;5.408;2023-06-10T14:57:46;4.57;;;4.10;;
71763;SDS011;59602;52.142;5.408;2023-06-10T15:01:04;4.05;;;3.70;;
71763;SDS011;59602;52.142;5.408;2023-06-10T15:03:35;4.45;;;4.05;;
71763;SDS011;59602;52.142;5.408;2023-06-10T15:06:35;4.70;;;3.42;;
71763;SDS011;59602;52.142;5.408;2023-06-10T15:09:02;5.20;;;3.50;;
71763;SDS011;59602;52.142;5.408;2023-06-10T15:11:29;5.00;;;4.00;;
71763;SDS011;59602;52.142;5.408;2023-06-10T15:13:55;4.50;;;3.88;;
71763;SDS011;59602;52.142;5.408;2023-06-10T15:26:21;6.50;;;3.33;;
71763;SDS011;59602;52.142;5.408;2023-06-10T15:28:53;6.85;;;4.53;;
71763;SDS011;59602;52.142;5.408;2023-06-10T15:32:22;4.97;;;4.00;;
71763;SDS011;59602;52.142;5.408;2023-06-10T15:34:51;4.18;;;3.75;;
71763;SDS011;59602;52.142;5.408;2023-06-10T15:37:38;4.72;;;4.20;;
71763;SDS011;59602;52.142;5.408;2023-06-10T15:40:41;4.10;;;3.70;;
71763;SDS011;59602;52.142;5.408;2023-06-10T15:46:30;6.80;;;4.32;;
71763;SDS011;59602;52.142;5.408;2023-06-10T15:49:31;4.22;;;3.83;;
71763;SDS011;59602;52.142;5.408;2023-06-10T16:02:30;4.40;;;3.95;;
71763;SDS011;59602;52.142;5.408;2023-06-10T16:09:58;4.78;;;3.13;;
71763;SDS011;59602;52.142;5.408;2023-06-10T16:13:07;6.23;;;4.30;;
71763;SDS011;59602;52.142;5.408;2023-06-10T16:28:53;5.37;;;3.60;;
71763;SDS011;59602;52.142;5.408;2023-06-10T16:32:08;5.30;;;3.15;;
71763;SDS011;59602;52.142;5.408;2023-06-10T16:34:46;5.43;;;3.42;;
71763;SDS011;59602;52.142;5.408;2023-06-10T16:40:19;3.40;;;3.10;;
71763;SDS011;59602;52.142;5.408;2023-06-10T16:51:56;7.03;;;3.90;;
71763;SDS011;59602;52.142;5.408;2023-06-10T17:01:28;5.20;;;3.30;;
71763;SDS011;59602;52.142;5.408;2023-06-10T17:04:00;5.88;;;3.53;;
71763;SDS011;59602;52.142;5.408;2023-06-10T17:06:50;4.97;;;3.40;;
71763;SDS011;59602;52.142;5.408;2023-06-10T17:14:00;6.17;;;3.13;;
71763;SDS011;59602;52.142;5.408;2023-06-10T17:16:27;4.18;;;3.22;;
71763;SDS011;59602;52.142;5.408;2023-06-10T17:20:01;5.68;;;3.80;;
71763;SDS011;59602;52.142;5.408;2023-06-10T17:26:47;4.93;;;3.42;;
71763;SDS011;59602;52.142;5.408;2023-06-10T17:29:27;4.83;;;3.40;;
71763;SDS011;59602;52.142;5.408;2023-06-10T17:32:16;3.67;;;3.00;;
71763;SDS011;59602;52.142;5.408;2023-06-10T17:35:09;5.15;;;2.95;;
71763;SDS011;59602;52.142;5.408;2023-06-10T17:43:27;6.13;;;3.30;;
71763;SDS011;59602;52.142;5.408;2023-06-10T19:37:34;4.78;;;2.88;;
71763;SDS011;59602;52.142;5.408;2023-06-10T19:40:18;4.53;;;2.80;;
71763;SDS011;59602;52.142;5.408;2023-06-10T19:43:55;3.42;;;2.83;;
71763;SDS011;59602;52.142;5.408;2023-06-10T19:49:39;5.57;;;3.80;;
71763;SDS011;59602;52.142;5.408;2023-06-10T19:53:14;6.60;;;3.42;;
